»·PEaware :: UAL2038 KPDX-KGEG

UAL2038 :: KPDX-KGEG

FLIGHT INFORMATION

Flight Status: Arrived
Operator:
United Airlines
More flights by this operator :: More flights under this callsign
Pilot: Maximilliano F. (23467)
Aircraft: BOEING 737-800
(B738)
More flights by this aircraft type
Origin: KPDX Portland Intl
United States
Destination: KGEG Spokane Intl
United States
More flights between these airports :: More routes between these airports
Route: +PTLD1 BTG PAPPS ZOOMR ZOOMR1
File this flight plan on PilotEdge
Remarks: RMK / SIMBRIEF
Altitude:
(Current/Filed)
29,000ft
Speed:
(Current/Filed)
439kts
Departed: 16-Oct-19 07:17 PM
Arrived: 16-Oct-19 08:04 PM
Distance/Time
Traveled:
242nm/0:46
Distance/Time
To Go:
Arrived

Flight Plot

Page will automatically refresh every two minutes.

Flight plan parsing failed; only flown route is shown


Map Options




Map Legend


Flown Route
Filed Route
Departure Airport
Arrival Airport
Navaid (VOR, NDB)
Fix

Horizontal Profiles

Position Reports

Time Latitude Longitude Heading Altitude Ground
Speed
16-Oct-19 18:51 45.589642 -122.590001 263 30ft 0kts
16-Oct-19 18:53 45.589642 -122.590001 263 29ft 0kts
16-Oct-19 18:53 45.589642 -122.590001 263 29ft 0kts
16-Oct-19 18:54 45.589642 -122.590001 263 29ft 0kts
16-Oct-19 18:55 45.589642 -122.590001 263 29ft 0kts
16-Oct-19 18:56 45.589642 -122.590001 263 29ft 0kts
16-Oct-19 18:57 45.589642 -122.590001 263 29ft 0kts
16-Oct-19 18:58 45.589642 -122.590001 263 29ft 0kts
16-Oct-19 18:59 45.589642 -122.590001 263 29ft 0kts
16-Oct-19 19:00 45.589642 -122.590001 263 29ft 0kts
16-Oct-19 19:01 45.589642 -122.590001 263 29ft 0kts
16-Oct-19 19:02 45.589642 -122.590001 263 30ft 0kts
16-Oct-19 19:03 45.589642 -122.590001 263 30ft 0kts
16-Oct-19 19:04 45.589642 -122.590001 263 30ft 0kts
16-Oct-19 19:05 45.589657 -122.589814 262 30ft 2kts
16-Oct-19 19:06 45.589726 -122.588968 262 30ft 2kts
16-Oct-19 19:07 45.589698 -122.588244 307 30ft 1kts
16-Oct-19 19:08 45.589665 -122.588188 307 30ft 0kts
16-Oct-19 19:09 45.589699 -122.588252 307 30ft 2kts
16-Oct-19 19:10 45.591208 -122.591802 298 30ft 12kts
16-Oct-19 19:11 45.593388 -122.597380 298 30ft 14kts
16-Oct-19 19:12 45.594354 -122.597608 43 29ft 0kts
16-Oct-19 19:13 45.594354 -122.597608 43 29ft 0kts
16-Oct-19 19:14 45.594354 -122.597608 43 29ft 0kts
16-Oct-19 19:15 45.594430 -122.597505 43 29ft 4kts
16-Oct-19 19:16 45.590893 -122.585592 118 30ft 131kts
16-Oct-19 19:17 45.568463 -122.520423 116 2150ft 208kts
16-Oct-19 19:18 45.541863 -122.432313 89 4827ft 270kts
16-Oct-19 19:19 45.598046 -122.387910 324 7947ft 271kts
16-Oct-19 19:20 45.655986 -122.459333 310 10950ft 296kts
16-Oct-19 19:21 45.737762 -122.490300 22 13714ft 372kts
16-Oct-19 19:22 45.804210 -122.369386 68 14996ft 393kts
16-Oct-19 19:23 45.845667 -122.224212 73 15002ft 390kts
16-Oct-19 19:24 45.884387 -122.077018 74 16278ft 399kts
16-Oct-19 19:25 45.924490 -121.923748 76 19267ft 419kts
16-Oct-19 19:26 45.966251 -121.763159 77 22062ft 438kts
16-Oct-19 19:27 46.009703 -121.594848 78 24579ft 459kts
16-Oct-19 19:28 46.054999 -121.418122 77 26794ft 481kts
16-Oct-19 19:29 46.101221 -121.236638 78 28752ft 503kts
16-Oct-19 19:30 46.149329 -121.045982 77 28788ft 524kts
16-Oct-19 19:31 46.198554 -120.849140 77 28772ft 523kts
16-Oct-19 19:32 46.247521 -120.651713 76 28769ft 520kts
16-Oct-19 19:33 46.296041 -120.454242 76 28772ft 522kts
16-Oct-19 19:34 46.343761 -120.258739 77 28765ft 519kts
16-Oct-19 19:35 46.391598 -120.060650 77 28791ft 521kts
16-Oct-19 19:36 46.441710 -119.864100 57 28837ft 531kts
16-Oct-19 19:37 46.539321 -119.705700 48 28812ft 526kts
16-Oct-19 19:38 46.640806 -119.549757 47 28766ft 530kts
16-Oct-19 19:39 46.739700 -119.396813 48 26188ft 508kts
16-Oct-19 19:40 46.831621 -119.253984 49 23754ft 482kts
16-Oct-19 19:41 46.920368 -119.115168 48 21528ft 454kts
16-Oct-19 19:42 47.003710 -118.984113 48 19529ft 425kts
16-Oct-19 19:43 47.083971 -118.857286 48 17671ft 422kts
16-Oct-19 19:44 47.160249 -118.736190 48 16067ft 411kts
16-Oct-19 19:45 47.235332 -118.616497 47 14321ft 381kts
16-Oct-19 19:46 47.307855 -118.500350 47 12665ft 376kts
16-Oct-19 19:47 47.377297 -118.388631 47 11100ft 370kts
16-Oct-19 19:48 47.431569 -118.269823 71 9987ft 329kts
16-Oct-19 19:49 47.458774 -118.149309 77 8955ft 301kts
16-Oct-19 19:50 47.482623 -118.033125 77 7995ft 294kts
16-Oct-19 19:51 47.507261 -117.916758 64 7988ft 299kts
16-Oct-19 19:52 47.555980 -117.818390 54 6696ft 293kts
16-Oct-19 19:53 47.604934 -117.723882 54 6004ft 287kts
16-Oct-19 19:54 47.653577 -117.629584 53 6001ft 287kts
16-Oct-19 19:55 47.699361 -117.542120 47 6003ft 253kts
16-Oct-19 19:56 47.750025 -117.469895 43 5375ft 249kts
16-Oct-19 19:57 47.787250 -117.395039 109 4496ft 212kts
16-Oct-19 19:58 47.739940 -117.370861 179 3510ft 171kts
16-Oct-19 19:59 47.702903 -117.409779 224 3477ft 156kts
16-Oct-19 20:00 47.672655 -117.455777 224 3500ft 156kts
16-Oct-19 20:01 47.641480 -117.502793 224 2708ft 161kts
16-Oct-19 20:02 47.616070 -117.541077 225 2391ft 48kts
16-Oct-19 20:03 47.610376 -117.550108 273 2391ft 10kts
16-Oct-19 20:04 47.612123 -117.551060 44 2390ft 9kts
16-Oct-19 20:05 47.615817 -117.545567 44 2390ft 21kts
16-Oct-19 20:06 47.619677 -117.539695 44 2391ft 18kts
16-Oct-19 20:07 47.622935 -117.535316 338 2391ft 8kts
16-Oct-19 20:08 47.623612 -117.536134 311 2391ft 0kts
16-Oct-19 20:09 47.623676 -117.536181 347 2391ft 0kts
16-Oct-19 20:10 47.623901 -117.536202 2 2391ft 0kts
16-Oct-19 20:11 47.623901 -117.536202 2 2391ft 0kts

Navigation Log

Ident Type
Flight plan parsing failed, navigation log unavailable